aviador You're here:

EHEH Decoded Metar

EINDHOVEN in NETHERLANDS
Report Time2018-02-25 10:55:00
UTC Time2018-02-25 11:27:28
Flight Rules vfr VFR
Wind070° at 12 kt
W.Decomp.*RWY 04: 10.4 kt HW 6.0 kt RCW
W.Rank070° ranks 17
Current wind is above 070° avg. (6.4)
Visibility9999 m
Phenomena:N/A
Clouds:N/A
Expected CloudBase > 5,200 ft AGL from Temp-Dew spread
CeilingNone
Temp-1°C (ISA -16)
Dew Point-14°C (37% RH)
AAT-8.6°C
QNH1030 hPa
Density Alt-2,418 ft
Elevation72 ft
Report Wrong Elevation
Raw Report
METAR COR EHEH 251055Z AUTO 07012KT 030V090 9999 NSC M01/M14 Q1030
BLU 07013KT CAVOK=

Extra information for EHEH:More info

Metar Taf Metar & Taf Last 4 Metars F.Rules Stats Wind Profile Meteogram Temp Stats Airport Information Weather charts Add Link Nearby VenuesMetar ALERT Operation Metar Decoded Social comments